Time;durP1;ratioP1;P1;durP2;ratioP2;P2;SDS_P1;SDS_P2;PMS_P1;PMS_P2;Temp;Humidity;BMP_temperature;BMP_pressure;BME280_temperature;BME280_humidity;BME280_pressure;Samples;Min_cycle;Max_cycle;Signal;HPM_P1;HPM_P2
2022/12/12 00:01:59;;;;;;;51.55;28.35;;;;;;;1.19;71.13;100134.09;4183051;28;20037;-74
2022/12/12 00:04:03;;;;;;;49.47;28.52;;;;;;;1.15;71.78;100142.44;4180580;28;20525;-73
2022/12/12 00:06:06;;;;;;;45.30;25.50;;;;;;;1.13;71.50;100136.38;4167475;28;20128;-73
2022/12/12 00:08:08;;;;;;;42.55;24.58;;;;;;;1.14;71.90;100133.03;4168833;28;20034;-74
2022/12/12 00:10:12;;;;;;;50.88;27.10;;;;;;;1.11;71.92;100142.22;4178521;28;20067;-74
2022/12/12 00:12:15;;;;;;;51.47;28.13;;;;;;;1.04;71.81;100136.84;4166345;28;20041;-73
2022/12/12 00:14:19;;;;;;;52.78;29.02;;;;;;;0.95;71.95;100136.41;4164725;28;20037;-73
2022/12/12 00:16:22;;;;;;;51.20;29.20;;;;;;;0.85;72.08;100137.63;4179116;28;20045;-73
2022/12/12 00:18:25;;;;;;;52.97;30.25;;;;;;;0.90;72.47;100132.72;4175645;28;20120;-73
2022/12/12 00:20:28;;;;;;;46.72;26.65;;;;;;;0.94;72.37;100137.19;4164996;28;20053;-74
2022/12/12 00:22:31;;;;;;;46.58;26.40;;;;;;;0.94;72.48;100132.09;4166193;28;20041;-72
2022/12/12 00:24:33;;;;;;;44.67;25.20;;;;;;;0.96;72.45;100138.13;4164574;28;20038;-73
2022/12/12 00:26:36;;;;;;;44.95;26.83;;;;;;;0.91;72.25;100133.63;4148517;28;20100;-73
2022/12/12 00:28:39;;;;;;;43.38;24.85;;;;;;;0.92;72.46;100136.25;4172826;28;20064;-73
2022/12/12 00:30:43;;;;;;;45.17;26.17;;;;;;;0.93;72.26;100137.13;4174280;28;20064;-74
2022/12/12 00:32:46;;;;;;;46.53;27.13;;;;;;;0.91;72.23;100134.50;4182437;28;20049;-73
2022/12/12 00:34:49;;;;;;;50.95;28.08;;;;;;;0.92;72.29;100135.38;4170377;28;20103;-73
2022/12/12 00:36:52;;;;;;;53.15;30.08;;;;;;;0.91;72.71;100138.75;4166149;28;20412;-73
2022/12/12 00:38:56;;;;;;;66.22;35.22;;;;;;;0.92;72.44;100136.25;4174524;28;20042;-73
2022/12/12 00:41:00;;;;;;;49.95;31.38;;;;;;;0.94;72.21;100137.19;4166118;28;20034;-73
2022/12/12 00:43:03;;;;;;;56.10;33.60;;;;;;;0.91;72.02;100139.63;4172695;28;20079;-73
2022/12/12 00:45:07;;;;;;;54.50;30.50;;;;;;;0.88;72.14;100142.03;4169175;28;20107;-73
2022/12/12 00:47:11;;;;;;;52.97;30.47;;;;;;;0.86;72.06;100141.97;4172962;28;20573;-73
2022/12/12 00:49:14;;;;;;;48.72;27.05;;;;;;;0.85;72.09;100149.56;4180283;28;20295;-74
2022/12/12 00:51:19;;;;;;;50.40;26.70;;;;;;;0.85;71.98;100140.19;4171567;28;20527;-73
2022/12/12 00:53:23;;;;;;;42.85;26.75;;;;;;;0.81;72.34;100150.22;4170241;28;20147;-73
2022/12/12 00:55:26;;;;;;;48.42;27.65;;;;;;;0.78;72.45;100142.41;4169338;28;20503;-73
2022/12/12 00:57:29;;;;;;;52.92;31.15;;;;;;;0.75;72.21;100139.69;4175296;28;20052;-73
2022/12/12 00:59:32;;;;;;;48.25;28.73;;;;;;;0.75;71.87;100138.00;4177671;28;20491;-73
2022/12/12 01:01:35;;;;;;;50.38;29.35;;;;;;;0.74;72.26;100136.25;4181687;28;20465;-73
2022/12/12 01:03:43;;;;;;;51.40;28.08;;;;;;;0.72;72.10;100137.84;4170210;28;20510;-74
2022/12/12 01:05:47;;;;;;;45.15;26.92;;;;;;;0.67;72.14;100134.19;4176479;28;20110;-74
2022/12/12 01:07:49;;;;;;;49.92;29.17;;;;;;;0.66;72.69;100140.13;4164249;28;20049;-74
2022/12/12 01:09:52;;;;;;;45.80;25.25;;;;;;;0.66;72.45;100141.00;4166431;28;20037;-74
2022/12/12 01:11:55;;;;;;;47.08;27.30;;;;;;;0.63;72.32;100147.66;4176272;28;20564;-74
2022/12/12 01:13:58;;;;;;;46.88;26.98;;;;;;;0.61;72.34;100145.00;4179526;28;20053;-74
2022/12/12 01:16:01;;;;;;;49.65;28.05;;;;;;;0.60;72.27;100148.38;4166881;28;20033;-74
2022/12/12 01:18:04;;;;;;;50.45;29.40;;;;;;;0.59;72.42;100151.72;4176908;28;20044;-74
2022/12/12 01:20:18;;;;;;;46.45;26.40;;;;;;;0.61;72.44;100154.34;4174280;28;20406;-74
2022/12/12 01:22:22;;;;;;;49.63;27.10;;;;;;;0.55;72.77;100149.81;4176834;28;20041;-74
2022/12/12 01:24:25;;;;;;;44.20;25.48;;;;;;;0.52;72.76;100149.66;4166545;28;20487;-74
2022/12/12 01:26:28;;;;;;;43.45;26.65;;;;;;;0.48;72.54;100142.63;4177280;28;20515;-74
2022/12/12 01:28:31;;;;;;;55.22;28.67;;;;;;;0.49;72.89;100147.81;4170044;28;20041;-74
2022/12/12 01:30:34;;;;;;;48.38;26.90;;;;;;;0.45;72.52;100148.50;4176613;28;20541;-74
2022/12/12 01:32:37;;;;;;;46.25;25.98;;;;;;;0.46;72.68;100146.81;4166590;28;20049;-74
2022/12/12 01:34:40;;;;;;;47.33;28.35;;;;;;;0.41;72.69;100145.69;4172737;28;20479;-74
2022/12/12 01:36:44;;;;;;;41.92;25.08;;;;;;;0.37;72.59;100143.81;4174836;28;20516;-74
2022/12/12 01:38:49;;;;;;;40.47;23.40;;;;;;;0.32;72.39;100147.00;4166894;28;20097;-74
2022/12/12 01:40:52;;;;;;;41.03;22.80;;;;;;;0.30;73.25;100147.72;4167126;28;20114;-74
2022/12/12 01:42:56;;;;;;;53.75;28.23;;;;;;;0.26;73.04;100151.78;4172500;28;20052;-73
2022/12/12 01:44:59;;;;;;;54.33;32.00;;;;;;;0.27;72.71;100153.56;4168203;28;20056;-74
2022/12/12 01:47:01;;;;;;;70.05;34.05;;;;;;;0.30;73.10;100153.69;4165078;28;20041;-73
2022/12/12 01:49:11;;;;;;;67.35;36.20;;;;;;;0.27;73.21;100156.09;4164925;28;20492;-74
2022/12/12 01:51:17;;;;;;;50.17;29.40;;;;;;;0.19;72.98;100164.19;4168965;28;20038;-74
2022/12/12 01:53:23;;;;;;;41.67;23.25;;;;;;;0.07;73.30;100160.19;4173724;28;20045;-74
2022/12/12 01:55:26;;;;;;;41.03;24.13;;;;;;;0.03;73.40;100168.53;4172756;28;20041;-73
2022/12/12 01:57:34;;;;;;;48.55;25.77;;;;;;;0.08;74.10;100166.22;4180409;28;20037;-73
2022/12/12 01:59:39;;;;;;;47.20;24.73;;;;;;;0.11;73.43;100166.38;4180823;28;20040;-73
2022/12/12 02:01:42;;;;;;;41.10;23.77;;;;;;;0.12;74.09;100173.25;4176818;28;20390;-72
2022/12/12 02:03:47;;;;;;;42.83;24.48;;;;;;;0.21;73.25;100170.28;4166068;28;20535;-73
2022/12/12 02:05:53;;;;;;;44.25;25.40;;;;;;;0.18;73.33;100165.88;4171932;28;20056;-74
2022/12/12 02:07:58;;;;;;;39.28;22.50;;;;;;;0.19;73.28;100169.31;4164612;28;20045;-73
2022/12/12 02:10:02;;;;;;;40.35;22.45;;;;;;;0.23;73.15;100166.97;4164678;28;20068;-73
2022/12/12 02:12:05;;;;;;;40.03;22.17;;;;;;;0.15;73.07;100173.38;4170609;28;20095;-74
2022/12/12 02:14:09;;;;;;;37.95;22.77;;;;;;;0.18;72.78;100168.44;4171973;28;20041;-74
2022/12/12 02:16:20;;;;;;;32.55;19.40;;;;;;;0.18;73.02;100168.44;4175798;28;20450;-74
2022/12/12 02:18:33;;;;;;;43.88;21.33;;;;;;;0.20;73.02;100171.94;4164497;28;20037;-74
2022/12/12 02:20:48;;;;;;;42.33;22.73;;;;;;;0.17;73.39;100164.13;4174504;28;20483;-72
2022/12/12 02:23:14;;;;;;;37.70;19.25;;;;;;;0.06;73.42;100167.78;4167138;28;20140;-73
2022/12/12 02:25:45;;;;;;;34.95;20.17;;;;;;;0.05;73.02;100166.91;4163394;28;20041;-73
2022/12/12 02:28:07;;;;;;;32.53;19.17;;;;;;;0.01;73.12;100162.44;4165952;28;20495;-72
2022/12/12 02:30:16;;;;;;;38.67;22.45;;;;;;;0.03;73.05;100167.63;4172732;28;20091;-73
2022/12/12 02:32:30;;;;;;;40.95;21.80;;;;;;;0.03;73.08;100168.53;4164004;28;20040;-74
2022/12/12 02:34:40;;;;;;;39.70;20.17;;;;;;;0.02;73.44;100166.75;4157328;28;20037;-74
2022/12/12 02:36:52;;;;;;;40.17;20.75;;;;;;;0.10;73.66;100169.72;4164565;28;20045;-73
2022/12/12 02:39:03;;;;;;;34.10;19.52;;;;;;;0.09;73.56;100162.81;4171742;28;20041;-73
2022/12/12 02:41:15;;;;;;;33.40;18.95;;;;;;;0.05;73.35;100160.94;4167086;28;20049;-74
2022/12/12 02:43:25;;;;;;;33.65;18.90;;;;;;;0.00;73.33;100158.16;4166755;28;20560;-74
2022/12/12 02:45:37;;;;;;;37.13;20.45;;;;;;;0.03;73.36;100159.97;4176332;28;20042;-73
2022/12/12 02:47:45;;;;;;;36.00;20.23;;;;;;;0.04;73.09;100157.47;4163499;28;20041;-73
2022/12/12 02:49:53;;;;;;;35.47;19.15;;;;;;;0.07;73.49;100157.63;4168279;28;20074;-74
2022/12/12 02:51:57;;;;;;;38.10;21.75;;;;;;;0.07;73.67;100164.44;4167181;28;20033;-73
2022/12/12 02:54:03;;;;;;;36.03;19.55;;;;;;;0.12;72.83;100160.47;4171218;28;20457;-73
2022/12/12 02:56:08;;;;;;;33.80;18.60;;;;;;;0.09;73.16;100157.72;4180435;28;20071;-73
2022/12/12 02:58:11;;;;;;;34.58;20.38;;;;;;;0.09;73.26;100161.16;4163927;28;20039;-73
2022/12/12 03:00:17;;;;;;;35.28;20.52;;;;;;;0.10;72.90;100165.50;4174055;28;20498;-73
2022/12/12 03:02:37;;;;;;;37.25;21.00;;;;;;;0.11;72.96;100162.13;4178039;28;20087;-73
2022/12/12 03:09:59;;;;;;;36.58;19.40;;;;;;;0.25;71.76;100173.06;4168491;28;20032;-74
2022/12/12 03:12:07;;;;;;;34.47;19.92;;;;;;;0.24;72.32;100166.19;4168255;28;20041;-73
2022/12/12 03:14:16;;;;;;;29.95;17.90;;;;;;;0.24;72.13;100173.84;4175881;28;20041;-74
2022/12/12 03:16:27;;;;;;;36.47;19.17;;;;;;;0.21;71.87;100178.81;4166014;28;20037;-72
2022/12/12 03:18:34;;;;;;;40.20;20.30;;;;;;;0.20;72.15;100182.16;4167950;28;20042;-72
2022/12/12 03:20:47;;;;;;;33.53;18.58;;;;;;;0.19;72.43;100190.66;4169850;28;20043;-73
2022/12/12 03:22:55;;;;;;;33.40;18.70;;;;;;;0.14;72.26;100192.06;4163444;28;20038;-73
2022/12/12 03:25:12;;;;;;;35.00;19.48;;;;;;;0.13;72.48;100187.75;4169766;28;20709;-74
2022/12/12 03:27:21;;;;;;;31.13;17.77;;;;;;;0.11;73.19;100176.59;4171897;28;20044;-74
2022/12/12 03:29:29;;;;;;;30.65;18.20;;;;;;;0.09;73.01;100176.50;4171757;28;20088;-73
2022/12/12 03:31:37;;;;;;;33.80;18.60;;;;;;;0.14;73.36;100177.59;4164476;28;20048;-73
2022/12/12 03:33:44;;;;;;;33.00;18.75;;;;;;;0.20;73.42;100186.41;4178659;28;20120;-73
2022/12/12 03:35:56;;;;;;;36.10;18.30;;;;;;;0.23;73.15;100187.41;4163541;28;20057;-73
2022/12/12 03:38:04;;;;;;;33.05;18.35;;;;;;;0.22;72.41;100190.81;4163734;28;20053;-72
2022/12/12 03:40:11;;;;;;;35.25;18.42;;;;;;;0.21;72.74;100185.63;4178039;28;20804;-74
2022/12/12 03:42:21;;;;;;;34.75;18.88;;;;;;;0.21;72.60;100185.63;4175443;28;20483;-73
2022/12/12 03:44:29;;;;;;;39.70;19.25;;;;;;;0.22;73.13;100188.25;4160328;28;20034;-73
2022/12/12 03:46:38;;;;;;;34.35;19.70;;;;;;;0.25;72.51;100188.41;4163725;28;20049;-73
2022/12/12 03:48:45;;;;;;;34.38;19.05;;;;;;;0.21;73.13;100183.91;4168593;28;20041;-74
2022/12/12 03:50:53;;;;;;;29.15;17.40;;;;;;;0.23;73.31;100186.56;4173064;28;20102;-74
2022/12/12 03:53:02;;;;;;;32.90;16.98;;;;;;;0.26;73.52;100187.56;4182651;28;20041;-75
2022/12/12 03:55:12;;;;;;;30.90;18.08;;;;;;;0.31;72.63;100185.28;4168575;28;20057;-74
2022/12/12 03:57:22;;;;;;;32.03;17.63;;;;;;;0.36;73.42;100190.63;4172300;28;20045;-73
2022/12/12 03:59:30;;;;;;;32.45;17.55;;;;;;;0.37;73.22;100184.72;4170748;28;20052;-75
2022/12/12 04:01:39;;;;;;;34.03;18.85;;;;;;;0.39;72.81;100188.22;4166528;28;20041;-74
2022/12/12 04:03:51;;;;;;;33.20;19.33;;;;;;;0.34;72.72;100198.22;4165230;28;20041;-74
2022/12/12 04:08:17;;;;;;;31.77;17.35;;;;;;;0.24;73.31;100204.53;4164853;28;20059;-73
2022/12/12 04:12:57;;;;;;;31.42;17.38;;;;;;;0.37;73.08;100192.38;4167785;28;20033;-74
2022/12/12 04:15:23;;;;;;;33.35;19.52;;;;;;;0.43;72.68;100195.25;4165414;28;20049;-73
2022/12/12 04:17:36;;;;;;;34.75;18.27;;;;;;;0.45;72.76;100191.06;4165837;28;20045;-73
2022/12/12 04:24:40;;;;;;;31.75;17.70;;;;;;;0.44;72.58;100197.88;4178837;28;20518;-73
2022/12/12 04:26:49;;;;;;;31.27;17.90;;;;;;;0.42;72.82;100203.72;4165649;28;20088;-71
2022/12/12 04:28:57;;;;;;;31.27;17.20;;;;;;;0.45;72.43;100204.75;4172697;28;20450;-72
2022/12/12 04:31:04;;;;;;;34.85;18.77;;;;;;;0.45;73.01;100193.63;4165900;28;20103;-73
2022/12/12 04:33:14;;;;;;;28.65;16.27;;;;;;;0.48;73.07;100193.78;4174708;28;20052;-73
2022/12/12 04:35:22;;;;;;;33.30;17.35;;;;;;;0.39;72.49;100201.00;4167550;28;20634;-72
2022/12/12 04:37:30;;;;;;;35.83;18.08;;;;;;;0.24;72.43;100207.09;4170490;28;20041;-72
2022/12/12 04:39:37;;;;;;;30.08;16.95;;;;;;;0.22;72.60;100201.03;4173403;28;20064;-72
2022/12/12 04:41:43;;;;;;;34.17;19.02;;;;;;;0.29;73.15;100200.53;4176282;28;20391;-73
2022/12/12 04:43:47;;;;;;;36.83;19.67;;;;;;;0.30;72.71;100206.53;4169973;28;20037;-73
2022/12/12 04:45:56;;;;;;;36.22;20.25;;;;;;;0.31;72.84;100206.59;4166113;28;20435;-73
2022/12/12 04:48:10;;;;;;;34.15;19.90;;;;;;;0.35;73.17;100205.06;4171552;28;20045;-73
2022/12/12 04:50:24;;;;;;;32.38;16.80;;;;;;;0.39;73.13;100198.44;4175501;28;20506;-74
2022/12/12 04:52:35;;;;;;;34.78;19.60;;;;;;;0.45;72.62;100203.88;4178252;28;20147;-73
2022/12/12 04:54:44;;;;;;;34.30;17.70;;;;;;;0.42;72.86;100190.94;4164974;28;20049;-74
2022/12/12 04:56:53;;;;;;;32.47;18.42;;;;;;;0.59;72.59;100196.91;4170617;28;20053;-74
2022/12/12 04:58:57;;;;;;;35.97;20.33;;;;;;;0.60;72.35;100198.63;4177432;28;20044;-74
2022/12/12 05:01:08;;;;;;;39.45;19.55;;;;;;;0.52;71.89;100196.56;4182019;28;20045;-74
2022/12/12 05:03:17;;;;;;;33.92;19.15;;;;;;;0.54;72.46;100196.69;4161397;28;20093;-73
2022/12/12 05:05:26;;;;;;;32.85;17.60;;;;;;;0.63;72.08;100194.56;4169740;28;20491;-74
2022/12/12 05:07:34;;;;;;;31.52;18.23;;;;;;;0.65;72.21;100197.19;4168518;28;20491;-74
2022/12/12 05:09:43;;;;;;;40.58;21.52;;;;;;;0.74;71.94;100213.00;4170030;28;20511;-74
2022/12/12 05:11:47;;;;;;;31.67;19.00;;;;;;;0.65;71.91;100210.00;4180817;28;20033;-74
2022/12/12 05:13:50;;;;;;;35.30;20.83;;;;;;;0.68;71.38;100218.69;4167344;28;20041;-74
2022/12/12 05:15:56;;;;;;;37.42;20.90;;;;;;;0.57;72.07;100224.97;4172699;28;20041;-74
2022/12/12 05:18:05;;;;;;;31.92;18.15;;;;;;;0.51;72.25;100225.53;4165429;28;20045;-74
2022/12/12 05:20:09;;;;;;;38.90;19.55;;;;;;;0.48;72.23;100225.38;4167457;28;20488;-74
2022/12/12 05:22:12;;;;;;;33.60;19.83;;;;;;;0.50;72.41;100220.34;4165202;28;20111;-74
2022/12/12 05:24:16;;;;;;;36.85;18.90;;;;;;;0.57;72.41;100224.97;4173413;28;20047;-74
2022/12/12 05:26:22;;;;;;;33.70;19.15;;;;;;;0.56;72.14;100232.56;4172735;28;20048;-74
2022/12/12 05:28:25;;;;;;;33.20;18.95;;;;;;;0.47;72.24;100226.16;4181797;28;20510;-73
2022/12/12 05:30:28;;;;;;;36.60;18.80;;;;;;;0.43;73.02;100228.50;4179977;28;20091;-73
2022/12/12 05:32:31;;;;;;;37.63;20.80;;;;;;;0.54;72.44;100219.69;4166072;28;20426;-74
2022/12/12 05:34:34;;;;;;;37.38;19.83;;;;;;;0.54;71.72;100224.81;4165201;28;20120;-74
2022/12/12 05:36:38;;;;;;;33.55;19.58;;;;;;;0.46;71.30;100218.41;4178750;28;20059;-73
2022/12/12 05:38:41;;;;;;;34.67;18.55;;;;;;;0.34;71.64;100228.91;4181529;28;20045;-74
2022/12/12 05:40:46;;;;;;;33.97;18.08;;;;;;;0.30;72.01;100232.97;4171684;28;20037;-73
2022/12/12 05:42:49;;;;;;;36.70;18.95;;;;;;;0.27;72.63;100225.13;4166118;28;20098;-74
2022/12/12 05:44:51;;;;;;;32.88;18.70;;;;;;;0.33;71.94;100224.56;4174519;28;20049;-74
2022/12/12 05:46:54;;;;;;;30.23;18.17;;;;;;;0.39;71.78;100221.47;4164858;28;20484;-74
2022/12/12 05:48:57;;;;;;;32.05;18.42;;;;;;;0.39;72.28;100221.47;4163796;28;20538;-73
2022/12/12 05:51:00;;;;;;;31.95;17.25;;;;;;;0.37;71.81;100212.84;4180853;28;20037;-72
2022/12/12 05:53:03;;;;;;;35.13;18.63;;;;;;;0.38;72.28;100220.59;4179209;28;20379;-73
2022/12/12 05:55:07;;;;;;;33.70;18.77;;;;;;;0.51;71.37;100219.50;4175510;28;20049;-74
2022/12/12 05:57:11;;;;;;;35.17;20.65;;;;;;;0.55;70.78;100225.69;4168098;28;20041;-73
2022/12/12 05:59:15;;;;;;;37.15;20.05;;;;;;;0.63;70.20;100238.06;4175544;28;20069;-73
2022/12/12 06:01:18;;;;;;;34.95;20.42;;;;;;;0.37;70.97;100238.41;4169775;28;20047;-74
2022/12/12 06:03:20;;;;;;;36.72;21.10;;;;;;;0.21;71.42;100245.28;4178131;28;20041;-74
2022/12/12 06:05:23;;;;;;;32.08;17.58;;;;;;;0.19;71.31;100253.66;4172572;28;20033;-73
2022/12/12 06:07:26;;;;;;;31.73;17.83;;;;;;;0.17;71.23;100249.34;4165600;28;20407;-73
2022/12/12 06:09:29;;;;;;;29.67;17.27;;;;;;;0.20;71.46;100247.75;4170350;28;20044;-73
2022/12/12 06:11:32;;;;;;;34.40;17.50;;;;;;;0.24;71.88;100240.31;4164461;28;20048;-73
2022/12/12 06:13:37;;;;;;;32.50;18.48;;;;;;;0.32;71.63;100241.59;4169219;28;20270;-72
2022/12/12 06:15:40;;;;;;;;;;;;;;;0.16;71.83;100251.81;4166691;28;20048;-73
2022/12/12 06:17:43;;;;;;;33.15;17.80;;;;;;;0.16;71.20;100252.72;4163673;28;19921;-74
2022/12/12 06:19:46;;;;;;;33.65;18.17;;;;;;;0.10;71.83;100248.94;4178029;28;20044;-73
2022/12/12 06:21:49;;;;;;;32.83;16.95;;;;;;;0.13;71.41;100243.97;4170700;28;20041;-73
2022/12/12 06:23:52;;;;;;;29.60;16.85;;;;;;;0.20;71.09;100243.50;4165348;28;20064;-73
2022/12/12 06:25:55;;;;;;;32.90;17.55;;;;;;;0.18;71.58;100252.78;4165425;28;20574;-74
2022/12/12 06:27:57;;;;;;;30.65;18.42;;;;;;;0.19;71.58;100252.00;4168538;28;20096;-74
2022/12/12 06:30:02;;;;;;;29.13;16.88;;;;;;;0.22;71.88;100249.59;4180432;28;20075;-73
2022/12/12 06:32:06;;;;;;;32.15;17.20;;;;;;;0.28;71.68;100257.59;4173141;28;20033;-73
2022/12/12 06:34:09;;;;;;;31.55;17.30;;;;;;;0.24;71.40;100254.78;4178117;28;20091;-73
2022/12/12 06:36:15;;;;;;;34.40;18.10;;;;;;;0.21;71.59;100259.75;4164179;28;20049;-73
2022/12/12 06:38:18;;;;;;;32.70;19.05;;;;;;;0.13;70.93;100259.31;4146728;28;20050;-74
2022/12/12 06:40:21;;;;;;;30.33;17.88;;;;;;;0.12;71.67;100265.25;4172499;28;20464;-73
2022/12/12 06:42:24;;;;;;;38.13;19.23;;;;;;;0.19;71.13;100275.00;4168431;28;20099;-74
2022/12/12 06:44:26;;;;;;;35.08;19.85;;;;;;;0.36;70.49;100268.19;4174028;28;20098;-74
2022/12/12 06:46:31;;;;;;;29.90;17.85;;;;;;;0.35;70.44;100271.53;4172516;28;20037;-74
2022/12/12 06:48:35;;;;;;;32.88;17.50;;;;;;;0.26;70.48;100264.28;4164099;28;20037;-74
2022/12/12 06:50:39;;;;;;;31.55;17.23;;;;;;;0.26;70.65;100264.28;4164220;28;20042;-73
2022/12/12 06:52:42;;;;;;;30.17;17.20;;;;;;;0.19;71.17;100277.56;4164064;28;20150;-74
2022/12/12 06:54:45;;;;;;;35.65;18.38;;;;;;;0.23;70.95;100273.47;4166395;28;20042;-73
2022/12/12 06:56:48;;;;;;;29.90;16.55;;;;;;;0.21;71.47;100275.94;4164048;28;20045;-73
2022/12/12 06:58:52;;;;;;;28.30;16.52;;;;;;;0.22;70.94;100281.94;4164037;28;20144;-74
2022/12/12 07:00:55;;;;;;;31.65;18.63;;;;;;;0.13;70.83;100283.22;4176226;28;20072;-73
2022/12/12 07:02:59;;;;;;;34.45;18.80;;;;;;;0.16;71.35;100288.50;4167195;28;20029;-74
2022/12/12 07:05:02;;;;;;;31.25;17.90;;;;;;;0.19;71.30;100289.44;4176890;28;20049;-74
2022/12/12 07:07:05;;;;;;;32.55;18.05;;;;;;;0.19;71.30;100292.91;4177204;28;20477;-74
2022/12/12 07:09:07;;;;;;;34.40;19.08;;;;;;;0.23;71.55;100292.25;4163961;28;20446;-73
2022/12/12 07:11:12;;;;;;;32.45;17.35;;;;;;;0.11;71.63;100292.47;4164545;28;20084;-73
2022/12/12 07:13:15;;;;;;;30.23;18.23;;;;;;;0.17;70.93;100299.59;4172600;28;20095;-73
2022/12/12 07:15:18;;;;;;;28.83;16.58;;;;;;;0.13;71.53;100288.34;4170587;28;20049;-74
2022/12/12 07:17:21;;;;;;;29.77;17.00;;;;;;;0.16;71.79;100292.72;4169995;28;20045;-74
2022/12/12 07:19:25;;;;;;;31.23;17.27;;;;;;;0.19;71.73;100294.56;4158591;28;20041;-73
2022/12/12 07:21:28;;;;;;;28.10;15.05;;;;;;;0.21;71.23;100296.41;4167189;28;20068;-74
2022/12/12 07:23:31;;;;;;;32.08;18.65;;;;;;;0.21;71.56;100298.97;4175894;28;20041;-74
2022/12/12 07:25:37;;;;;;;29.83;17.50;;;;;;;0.22;71.09;100299.81;4165701;28;20038;-74
2022/12/12 07:27:40;;;;;;;32.05;17.20;;;;;;;0.26;71.48;100305.19;4167149;28;20057;-73
2022/12/12 07:29:43;;;;;;;34.28;18.90;;;;;;;0.29;71.24;100307.94;4178457;28;20037;-73
2022/12/12 07:31:46;;;;;;;29.88;16.02;;;;;;;0.28;70.84;100306.16;4176614;28;20442;-75
2022/12/12 07:33:49;;;;;;;26.35;15.73;;;;;;;0.27;70.95;100309.50;4172675;28;20531;-74
2022/12/12 07:35:57;;;;;;;28.27;17.33;;;;;;;0.27;70.96;100316.31;4167690;28;20132;-75
2022/12/12 07:38:00;;;;;;;31.45;16.40;;;;;;;0.24;70.12;100319.56;4172579;28;20044;-74
2022/12/12 07:40:03;;;;;;;32.03;18.08;;;;;;;0.23;70.83;100324.59;4174701;28;20052;-74
2022/12/12 07:42:06;;;;;;;30.85;16.88;;;;;;;0.12;70.94;100313.81;4179696;28;20565;-74
2022/12/12 07:44:09;;;;;;;30.67;15.82;;;;;;;0.10;70.69;100325.63;4165842;28;20059;-74
2022/12/12 07:46:14;;;;;;;31.88;16.15;;;;;;;0.10;70.56;100323.06;4167034;28;20048;-74
2022/12/12 07:48:17;;;;;;;;;;;;;;;0.06;70.87;100326.25;4177952;28;20479;-73
2022/12/12 07:50:20;;;;;;;31.67;16.98;;;;;;;0.11;70.91;100329.94;4176735;28;19928;-73
2022/12/12 07:52:24;;;;;;;30.70;17.13;;;;;;;0.20;70.92;100332.97;4168078;28;20102;-73
2022/12/12 07:54:28;;;;;;;33.50;16.60;;;;;;;0.22;70.80;100328.84;4166326;28;20061;-73
2022/12/12 07:56:30;;;;;;;30.17;16.67;;;;;;;0.28;70.52;100329.16;4172091;28;20048;-73
2022/12/12 07:58:34;;;;;;;31.60;16.00;;;;;;;0.22;70.07;100333.97;4174768;28;20449;-73
2022/12/12 08:00:37;;;;;;;32.53;17.92;;;;;;;0.21;70.73;100333.88;4179474;28;20052;-73
2022/12/12 08:02:40;;;;;;;28.15;16.25;;;;;;;0.21;70.63;100332.19;4169118;28;20047;-73
2022/12/12 08:04:43;;;;;;;26.98;16.23;;;;;;;0.25;70.11;100335.78;4164976;28;20052;-74
2022/12/12 08:06:47;;;;;;;28.33;15.20;;;;;;;0.26;70.79;100338.41;4166528;28;20041;-73
2022/12/12 08:08:54;;;;;;;32.63;18.83;;;;;;;0.23;70.16;100334.84;4182686;28;20491;-73
2022/12/12 08:10:57;;;;;;;30.67;17.48;;;;;;;0.33;70.47;100347.31;4178846;28;20044;-75
2022/12/12 08:13:00;;;;;;;32.28;18.85;;;;;;;0.22;70.02;100339.06;4165972;28;20052;-73
2022/12/12 08:15:04;;;;;;;31.50;16.88;;;;;;;0.27;70.09;100336.75;4165951;28;20208;-74
2022/12/12 08:17:06;;;;;;;29.23;16.00;;;;;;;0.24;70.72;100345.13;4166799;28;20086;-73
2022/12/12 08:19:09;;;;;;;28.15;15.93;;;;;;;0.30;70.57;100344.59;4163837;28;20046;-73
2022/12/12 08:21:14;;;;;;;31.27;17.30;;;;;;;0.30;70.34;100350.56;4170893;28;20068;-73
2022/12/12 08:23:24;;;;;;;28.75;16.08;;;;;;;0.28;70.03;100349.63;4169973;28;20401;-73
2022/12/12 08:25:29;;;;;;;32.50;17.75;;;;;;;0.28;69.83;100343.63;4181454;28;20506;-74
2022/12/12 08:27:31;;;;;;;30.15;16.67;;;;;;;0.33;69.70;100348.19;4171395;28;20041;-73
2022/12/12 08:29:35;;;;;;;32.90;17.70;;;;;;;0.41;70.01;100346.03;4165967;28;20038;-74
2022/12/12 08:31:39;;;;;;;34.15;19.05;;;;;;;0.32;69.41;100343.88;4173642;28;20041;-73
2022/12/12 08:33:42;;;;;;;30.40;18.25;;;;;;;0.31;70.02;100349.78;4181102;28;20041;-74
2022/12/12 08:35:46;;;;;;;31.90;17.80;;;;;;;0.39;69.76;100350.19;4182425;28;20140;-74
2022/12/12 08:37:49;;;;;;;31.70;17.08;;;;;;;0.39;69.55;100346.75;4180578;28;20473;-73
2022/12/12 08:39:52;;;;;;;29.40;16.52;;;;;;;0.41;69.34;100360.50;4181478;28;20449;-74
2022/12/12 08:41:59;;;;;;;;;;;;;;;0.12;69.41;100355.59;4180318;28;20068;-73
2022/12/12 08:44:02;;;;;;;28.60;16.08;;;;;;;0.16;70.14;100366.84;4165558;28;20286;-74
2022/12/12 08:46:06;;;;;;;29.38;16.02;;;;;;;0.24;70.39;100363.03;4180120;28;20071;-74
2022/12/12 08:48:15;;;;;;;38.75;20.10;;;;;;;0.33;69.20;100368.63;4182417;28;20045;-73
2022/12/12 08:50:18;;;;;;;33.30;17.50;;;;;;;0.29;68.98;100364.19;4174701;28;20041;-72
2022/12/12 08:52:21;;;;;;;32.03;18.63;;;;;;;0.20;68.89;100365.34;4173881;28;20037;-73
2022/12/12 08:54:25;;;;;;;31.83;17.83;;;;;;;0.13;69.68;100367.56;4165608;28;20129;-74
2022/12/12 08:56:28;;;;;;;32.63;18.30;;;;;;;0.17;69.17;100366.06;4172768;28;20448;-73
2022/12/12 08:58:32;;;;;;;28.80;17.48;;;;;;;0.25;69.57;100364.81;4165636;28;20074;-73
2022/12/12 09:00:36;;;;;;;30.52;17.83;;;;;;;0.37;69.54;100376.50;4170072;28;20041;-73
2022/12/12 09:02:39;;;;;;;33.85;18.98;;;;;;;0.40;69.59;100374.09;4173615;28;20037;-73
2022/12/12 09:04:42;;;;;;;32.28;18.08;;;;;;;0.46;69.62;100369.31;4179565;28;20043;-74
2022/12/12 09:06:45;;;;;;;32.67;17.90;;;;;;;0.42;68.92;100370.81;4169272;28;20041;-74
2022/12/12 09:08:49;;;;;;;30.50;18.40;;;;;;;0.37;69.11;100369.69;4179568;28;20095;-74
2022/12/12 09:10:52;;;;;;;34.35;20.10;;;;;;;0.42;69.21;100365.69;4171594;28;20052;-74
2022/12/12 09:12:55;;;;;;;29.95;18.17;;;;;;;0.49;68.97;100380.56;4179790;28;20130;-74
2022/12/12 09:14:59;;;;;;;34.20;19.30;;;;;;;0.37;68.78;100376.50;4165123;28;20163;-74
2022/12/12 09:17:02;;;;;;;39.95;19.75;;;;;;;0.49;69.07;100377.13;4164109;28;20499;-75
2022/12/12 09:19:05;;;;;;;32.33;18.90;;;;;;;0.46;69.40;100374.41;4167043;28;20128;-76
2022/12/12 09:21:08;;;;;;;38.08;19.95;;;;;;;0.58;68.97;100385.28;4168782;28;20041;-76
2022/12/12 09:23:10;;;;;;;32.58;18.70;;;;;;;0.57;68.94;100388.66;4165118;28;20492;-73
2022/12/12 09:25:14;;;;;;;32.60;18.17;;;;;;;0.56;69.09;100391.16;4173019;28;20483;-75
2022/12/12 09:27:17;;;;;;;34.90;18.70;;;;;;;0.43;68.89;100392.16;4179217;28;20047;-73
2022/12/12 09:29:20;;;;;;;33.08;19.38;;;;;;;0.41;68.62;100386.06;4181764;28;20044;-74
2022/12/12 09:31:24;;;;;;;36.40;20.05;;;;;;;0.46;68.87;100380.41;4167429;28;20068;-74
2022/12/12 09:33:27;;;;;;;32.90;19.75;;;;;;;0.48;68.75;100394.16;4165209;28;20037;-73
2022/12/12 09:35:30;;;;;;;36.72;20.05;;;;;;;0.33;68.28;100386.53;4163816;28;20037;-73
2022/12/12 09:37:33;;;;;;;34.70;20.80;;;;;;;0.21;69.09;100385.88;4177251;28;20049;-73
2022/12/12 09:39:36;;;;;;;42.28;23.88;;;;;;;0.08;68.69;100384.31;4164795;28;20041;-73
2022/12/12 09:41:39;;;;;;;38.85;21.02;;;;;;;-0.09;69.54;100387.63;4171378;28;20068;-73
2022/12/12 09:43:50;;;;;;;36.10;22.15;;;;;;;-0.10;69.48;100386.75;4173712;28;20041;-72
2022/12/12 09:45:53;;;;;;;36.50;20.40;;;;;;;0.05;69.77;100381.59;4167916;28;20041;-72
2022/12/12 09:48:02;;;;;;;40.00;22.20;;;;;;;0.08;69.64;100381.75;4164035;28;20434;-72
2022/12/12 09:50:13;;;;;;;37.47;19.92;;;;;;;0.17;69.26;100382.25;4164000;28;20059;-71
2022/12/12 09:52:20;;;;;;;39.17;22.27;;;;;;;0.18;69.37;100383.16;4172931;28;20056;-72